createdAt,value
2023-03-18T00:00:10.295Z,1.40
2023-03-18T00:02:38.858Z,2.20
2023-03-18T00:05:08.745Z,1.40
2023-03-18T00:07:37.463Z,1.33
2023-03-18T00:10:10.082Z,1.57
2023-03-18T00:12:38.764Z,1.47
2023-03-18T00:15:07.749Z,1.93
2023-03-18T00:17:37.643Z,1.40
2023-03-18T00:20:07.092Z,1.30
2023-03-18T00:22:36.050Z,1.90
2023-03-18T00:25:05.097Z,1.67
2023-03-18T00:27:35.882Z,1.80
2023-03-18T00:30:05.644Z,1.50
2023-03-18T00:32:34.379Z,1.50
2023-03-18T00:35:03.910Z,1.60
2023-03-18T00:37:33.560Z,1.50
2023-03-18T00:40:06.943Z,1.70
2023-03-18T00:42:42.632Z,1.43
2023-03-18T00:45:12.140Z,1.73
2023-03-18T00:47:40.322Z,1.00
2023-03-18T00:50:09.837Z,1.40
2023-03-18T00:52:39.723Z,1.10
2023-03-18T00:55:09.383Z,1.93
2023-03-18T00:57:39.011Z,1.70
2023-03-18T01:00:08.287Z,1.67
2023-03-18T01:02:36.839Z,1.97
2023-03-18T01:05:05.953Z,2.00
2023-03-18T01:07:34.052Z,1.57
2023-03-18T01:10:02.201Z,1.80
2023-03-18T01:12:30.208Z,1.90
2023-03-18T01:15:00.724Z,1.77
2023-03-18T01:17:29.023Z,1.70
2023-03-18T01:19:57.046Z,2.27
2023-03-18T01:22:26.501Z,1.60
2023-03-18T01:24:55.302Z,2.20
2023-03-18T01:27:29.953Z,1.70
2023-03-18T01:30:02.000Z,2.07
2023-03-18T01:32:30.597Z,1.60
2023-03-18T01:34:59.997Z,2.20
2023-03-18T01:37:29.003Z,1.50
2023-03-18T01:40:10.255Z,1.80
2023-03-18T01:42:38.763Z,1.40
2023-03-18T01:45:19.361Z,1.90
2023-03-18T01:47:50.019Z,2.07
2023-03-18T01:50:23.365Z,2.67
2023-03-18T01:52:56.328Z,1.87
2023-03-18T01:55:28.974Z,2.30
2023-03-18T01:57:57.827Z,2.90
2023-03-18T02:00:28.538Z,1.80
2023-03-18T02:02:56.678Z,1.90
2023-03-18T02:05:26.765Z,1.80
2023-03-18T02:07:55.167Z,2.10
2023-03-18T02:10:26.220Z,2.07
2023-03-18T02:13:00.413Z,2.40
2023-03-18T02:15:39.815Z,2.30
2023-03-18T02:18:17.271Z,1.77
2023-03-18T02:20:56.457Z,2.00
2023-03-18T02:23:33.605Z,1.87
2023-03-18T02:26:06.805Z,2.13
2023-03-18T02:28:38.287Z,2.43
2023-03-18T02:31:13.012Z,1.90
2023-03-18T02:33:43.880Z,1.80
2023-03-18T02:36:15.383Z,1.80
2023-03-18T02:38:45.948Z,1.50
2023-03-18T02:41:22.725Z,1.63
2023-03-18T02:43:53.133Z,2.87
2023-03-18T02:46:31.147Z,1.57
2023-03-18T02:49:01.335Z,2.20
2023-03-18T02:51:31.458Z,1.90
2023-03-18T02:54:03.978Z,2.10
2023-03-18T02:56:32.365Z,1.70
2023-03-18T02:59:01.903Z,1.70
2023-03-18T03:01:30.914Z,1.67
2023-03-18T03:03:59.208Z,1.80
2023-03-18T03:06:27.484Z,2.00
2023-03-18T03:08:57.425Z,2.17
2023-03-18T03:11:26.638Z,2.13
2023-03-18T03:13:58.309Z,1.97
2023-03-18T03:16:29.566Z,2.07
2023-03-18T03:18:58.837Z,2.00
2023-03-18T03:21:27.840Z,2.10
2023-03-18T03:23:58.337Z,2.07
2023-03-18T03:26:27.258Z,1.60
2023-03-18T03:28:55.778Z,1.40
2023-03-18T03:31:24.932Z,1.67
2023-03-18T03:33:54.483Z,2.17
2023-03-18T03:36:22.603Z,1.83
2023-03-18T03:38:50.981Z,2.10
2023-03-18T03:41:19.113Z,1.83
2023-03-18T03:43:50.528Z,2.43
2023-03-18T03:46:18.653Z,1.77
2023-03-18T03:48:47.896Z,2.40
2023-03-18T03:51:17.872Z,1.80
2023-03-18T03:53:46.532Z,2.37
2023-03-18T03:56:15.857Z,1.67
2023-03-18T03:58:44.121Z,1.60
2023-03-18T04:01:12.612Z,2.03
2023-03-18T04:03:40.822Z,1.90
2023-03-18T04:06:10.215Z,1.67
2023-03-18T04:08:46.244Z,1.60
2023-03-18T04:11:14.372Z,1.97
2023-03-18T04:13:43.454Z,2.27
2023-03-18T04:16:11.553Z,3.17
2023-03-18T04:18:40.172Z,2.07
2023-03-18T04:21:09.125Z,2.23
2023-03-18T04:23:41.745Z,1.90
2023-03-18T04:26:13.081Z,2.10
2023-03-18T04:28:41.581Z,2.33
2023-03-18T04:31:12.073Z,2.20
2023-03-18T04:33:40.129Z,2.20
2023-03-18T04:36:09.188Z,2.60
2023-03-18T04:38:38.198Z,2.47
2023-03-18T04:41:07.597Z,1.70
2023-03-18T04:43:37.021Z,2.27
2023-03-18T04:46:06.497Z,1.80
2023-03-18T04:48:35.906Z,1.80
2023-03-18T04:51:08.511Z,2.20
2023-03-18T04:53:37.583Z,2.00
2023-03-18T04:56:07.512Z,3.33
2023-03-18T04:58:45.184Z,1.80
2023-03-18T05:01:19.201Z,2.37
2023-03-18T05:03:47.588Z,2.50
2023-03-18T05:06:22.930Z,2.20
2023-03-18T05:08:57.063Z,2.10
2023-03-18T05:11:29.232Z,1.70
2023-03-18T05:14:01.861Z,1.63
2023-03-18T05:16:37.121Z,2.50
2023-03-18T05:19:06.223Z,2.33
2023-03-18T05:21:35.949Z,1.90
2023-03-18T05:24:04.437Z,1.87
2023-03-18T05:26:38.827Z,2.10
2023-03-18T05:29:10.549Z,1.77
2023-03-18T05:31:53.519Z,1.93
2023-03-18T05:34:22.240Z,2.30
2023-03-18T05:36:50.881Z,2.47
2023-03-18T05:39:19.371Z,2.17
2023-03-18T05:41:47.805Z,2.17
2023-03-18T05:44:24.667Z,2.37
2023-03-18T05:46:54.855Z,3.00
2023-03-18T05:49:38.294Z,2.53
2023-03-18T05:52:19.803Z,2.33
2023-03-18T05:54:50.643Z,2.80
2023-03-18T05:57:25.005Z,2.83
2023-03-18T06:00:00.807Z,3.20
2023-03-18T06:02:33.395Z,2.50
2023-03-18T06:05:01.607Z,3.40
2023-03-18T06:07:30.512Z,2.30
2023-03-18T06:09:58.695Z,3.13
2023-03-18T06:12:28.549Z,3.13
2023-03-18T06:14:57.547Z,3.57
2023-03-18T06:17:29.136Z,3.40
2023-03-18T06:19:57.718Z,2.97
2023-03-18T06:22:26.291Z,3.23
2023-03-18T06:24:54.469Z,3.20
2023-03-18T06:27:22.549Z,3.23
2023-03-18T06:29:56.244Z,3.10
2023-03-18T06:32:24.398Z,2.53
2023-03-18T06:34:53.930Z,2.50
2023-03-18T06:37:22.386Z,2.90
2023-03-18T06:39:51.218Z,2.40
2023-03-18T06:42:19.282Z,3.00
2023-03-18T06:45:11.001Z,2.73
2023-03-18T06:47:49.555Z,2.37
2023-03-18T06:50:22.377Z,2.93
2023-03-18T06:52:53.463Z,2.77
2023-03-18T06:55:28.026Z,2.00
2023-03-18T06:57:56.468Z,2.77
2023-03-18T07:00:31.814Z,2.20
2023-03-18T07:03:01.308Z,2.13
2023-03-18T07:05:33.326Z,2.90
2023-03-18T07:08:03.012Z,2.10
2023-03-18T07:10:32.033Z,2.80
2023-03-18T07:13:09.072Z,2.80
2023-03-18T07:15:38.981Z,2.23
2023-03-18T07:18:07.634Z,1.70
2023-03-18T07:20:37.675Z,3.83
2023-03-18T07:23:06.203Z,2.13
2023-03-18T07:25:34.476Z,2.40
2023-03-18T07:28:03.205Z,2.00
2023-03-18T07:30:31.440Z,2.33
2023-03-18T07:32:59.762Z,2.20
2023-03-18T07:35:29.010Z,2.00
2023-03-18T07:37:58.977Z,1.80
2023-03-18T07:40:27.063Z,2.60
2023-03-18T07:42:55.077Z,2.60
2023-03-18T07:45:23.117Z,1.90
2023-03-18T07:47:51.416Z,1.70
2023-03-18T07:50:19.690Z,1.80
2023-03-18T07:52:48.345Z,2.00
2023-03-18T07:55:17.845Z,2.10
2023-03-18T07:57:46.021Z,1.80
2023-03-18T08:00:29.507Z,2.00
2023-03-18T08:02:57.996Z,1.87
2023-03-18T08:05:26.054Z,2.30
2023-03-18T08:07:55.266Z,1.53
2023-03-18T08:10:25.541Z,2.13
2023-03-18T08:12:54.148Z,1.53
2023-03-18T08:15:23.013Z,1.77
2023-03-18T08:17:52.716Z,2.03
2023-03-18T08:20:21.473Z,1.70
2023-03-18T08:22:49.995Z,2.30
2023-03-18T08:25:18.579Z,2.20
2023-03-18T08:27:48.194Z,2.07
2023-03-18T08:30:16.459Z,1.43
2023-03-18T08:32:44.805Z,2.07
2023-03-18T08:35:13.695Z,1.87
2023-03-18T08:37:42.607Z,1.47
2023-03-18T08:40:12.055Z,2.10
2023-03-18T08:42:40.552Z,1.60
2023-03-18T08:45:12.301Z,1.80
2023-03-18T08:47:41.381Z,1.80
2023-03-18T08:50:11.087Z,1.90
2023-03-18T08:52:39.913Z,1.80
2023-03-18T08:55:09.645Z,1.90
2023-03-18T08:57:38.956Z,1.90
2023-03-18T09:00:11.500Z,1.67
2023-03-18T09:02:39.720Z,1.40
2023-03-18T09:05:08.428Z,1.83
2023-03-18T09:07:36.410Z,2.20
2023-03-18T09:10:04.938Z,1.50
2023-03-18T09:12:33.044Z,1.40
2023-03-18T09:15:02.049Z,1.60
2023-03-18T09:17:50.962Z,2.00
2023-03-18T09:20:19.475Z,2.00
2023-03-18T09:22:47.561Z,1.70
2023-03-18T09:25:16.677Z,1.60
2023-03-18T09:27:45.790Z,1.60
2023-03-18T09:30:15.400Z,1.70
2023-03-18T09:32:45.133Z,1.50
2023-03-18T09:35:14.645Z,1.70
2023-03-18T09:37:43.663Z,1.70
2023-03-18T09:40:19.302Z,1.40
2023-03-18T09:42:56.674Z,1.50
2023-03-18T09:45:31.264Z,1.30
2023-03-18T09:48:21.156Z,2.10
2023-03-18T09:50:56.705Z,1.20
2023-03-18T09:53:28.555Z,1.97
2023-03-18T09:55:59.353Z,1.40
2023-03-18T09:58:51.279Z,1.50
2023-03-18T10:01:21.807Z,1.50
2023-03-18T10:03:54.807Z,1.23
2023-03-18T10:06:25.351Z,1.17
2023-03-18T10:09:02.215Z,1.17
2023-03-18T10:11:34.688Z,1.53
2023-03-18T10:14:19.561Z,1.50
2023-03-18T10:17:02.621Z,1.20
2023-03-18T10:19:34.179Z,1.40
2023-03-18T10:22:16.314Z,1.00
2023-03-18T10:24:52.908Z,1.30
2023-03-18T10:27:31.054Z,1.13
2023-03-18T10:30:05.235Z,1.10
2023-03-18T10:32:49.509Z,1.10
2023-03-18T10:35:32.178Z,1.00
2023-03-18T10:38:05.625Z,1.23
2023-03-18T10:40:41.200Z,1.20
2023-03-18T10:43:19.584Z,1.47
2023-03-18T10:45:50.076Z,1.13
2023-03-18T10:48:26.407Z,1.00
2023-03-18T10:51:03.954Z,1.10
2023-03-18T10:53:40.245Z,1.10
2023-03-18T10:56:10.468Z,1.23
2023-03-18T10:58:39.779Z,1.40
2023-03-18T11:01:09.878Z,1.20
2023-03-18T11:03:45.253Z,1.20
2023-03-18T11:06:20.069Z,1.37
2023-03-18T11:08:49.840Z,1.30
2023-03-18T11:11:23.516Z,1.20
2023-03-18T11:13:53.980Z,1.10
2023-03-18T11:16:31.004Z,1.53
2023-03-18T11:18:59.858Z,1.30
2023-03-18T11:21:31.524Z,1.50
2023-03-18T11:24:20.848Z,1.07
2023-03-18T11:26:54.366Z,1.27
2023-03-18T11:29:26.115Z,1.30
2023-03-18T11:31:58.140Z,1.20
2023-03-18T11:34:27.068Z,1.10
2023-03-18T11:37:01.125Z,1.00
2023-03-18T11:39:31.890Z,1.10
2023-03-18T11:42:01.544Z,1.10
2023-03-18T11:44:32.884Z,1.27
2023-03-18T11:47:05.786Z,1.50
2023-03-18T11:49:34.376Z,1.20
2023-03-18T11:52:23.701Z,1.17
2023-03-18T11:55:18.612Z,1.33
2023-03-18T11:58:24.235Z,1.20
2023-03-18T12:01:00.574Z,1.33
2023-03-18T12:04:08.149Z,1.13
2023-03-18T12:06:45.626Z,1.10
2023-03-18T12:09:26.050Z,1.43
2023-03-18T12:12:10.012Z,1.30
2023-03-18T12:14:46.998Z,1.43
2023-03-18T12:17:30.606Z,1.20
2023-03-18T12:20:19.926Z,0.97
2023-03-18T12:23:04.469Z,1.30
2023-03-18T12:25:55.096Z,1.03
2023-03-18T12:28:32.079Z,1.10
2023-03-18T12:31:16.873Z,1.77
2023-03-18T12:33:57.178Z,1.10
2023-03-18T12:36:35.789Z,1.30
2023-03-18T12:39:46.146Z,1.00
2023-03-18T12:42:19.780Z,0.80
2023-03-18T12:44:58.671Z,1.30
2023-03-18T12:47:36.940Z,0.80
2023-03-18T12:50:15.241Z,0.90
2023-03-18T12:52:47.584Z,1.10
2023-03-18T12:55:20.073Z,0.90
2023-03-18T12:57:51.692Z,0.80
2023-03-18T13:00:24.792Z,1.10
2023-03-18T13:03:17.795Z,0.80
2023-03-18T13:05:52.485Z,1.00
2023-03-18T13:08:45.600Z,0.80
2023-03-18T13:11:36.086Z,0.90
2023-03-18T13:14:15.456Z,0.80
2023-03-18T13:16:43.865Z,0.90
2023-03-18T13:19:12.276Z,0.90
2023-03-18T13:21:44.678Z,0.77
2023-03-18T13:24:21.400Z,0.97
2023-03-18T13:27:09.596Z,0.97
2023-03-18T13:29:47.919Z,1.10
2023-03-18T13:32:36.236Z,0.93
2023-03-18T13:35:27.154Z,1.00
2023-03-18T13:38:12.264Z,1.13
2023-03-18T13:41:00.896Z,0.97
2023-03-18T13:43:30.844Z,1.10
2023-03-18T13:46:01.745Z,1.20
2023-03-18T13:48:33.645Z,0.80
2023-03-18T13:51:19.143Z,1.07
2023-03-18T13:53:50.617Z,1.40
2023-03-18T13:56:30.006Z,1.00
2023-03-18T13:58:58.055Z,1.00
2023-03-18T14:01:34.506Z,1.00
2023-03-18T14:04:34.284Z,1.40
2023-03-18T14:07:17.720Z,1.17
2023-03-18T14:09:51.614Z,1.10
2023-03-18T14:12:40.339Z,0.90
2023-03-18T14:15:44.396Z,0.90
2023-03-18T14:18:29.150Z,0.97
2023-03-18T14:21:02.618Z,1.07
2023-03-18T14:23:37.091Z,1.23
2023-03-18T14:26:08.091Z,1.00
2023-03-18T14:28:47.104Z,1.40
2023-03-18T14:31:21.155Z,1.10
2023-03-18T14:34:03.852Z,1.47
2023-03-18T14:37:25.317Z,1.40
2023-03-18T14:39:56.156Z,1.30
2023-03-18T14:42:43.906Z,0.83
2023-03-18T14:45:20.691Z,1.13
2023-03-18T14:47:51.973Z,1.10
2023-03-18T14:50:30.364Z,1.37
2023-03-18T14:53:05.218Z,1.20
2023-03-18T14:55:35.799Z,1.37
2023-03-18T14:58:04.332Z,0.90
2023-03-18T15:00:35.506Z,1.37
2023-03-18T15:03:08.331Z,1.20
2023-03-18T15:05:40.141Z,1.03
2023-03-18T15:08:10.651Z,0.90
2023-03-18T15:10:39.082Z,1.00
2023-03-18T15:13:08.442Z,1.20
2023-03-18T15:15:36.831Z,1.47
2023-03-18T15:18:18.394Z,1.00
2023-03-18T15:20:51.747Z,1.37
2023-03-18T15:23:26.960Z,1.10
2023-03-18T15:25:55.100Z,1.50
2023-03-18T15:28:25.078Z,1.50
2023-03-18T15:30:55.928Z,1.20
2023-03-18T15:33:26.099Z,1.70
2023-03-18T15:36:05.821Z,1.33
2023-03-18T15:38:34.909Z,1.37
2023-03-18T15:41:05.433Z,1.80
2023-03-18T15:43:40.027Z,1.30
2023-03-18T15:46:16.179Z,1.50
2023-03-18T15:48:54.106Z,1.97
2023-03-18T15:51:30.001Z,1.30
2023-03-18T15:54:01.479Z,1.57
2023-03-18T15:56:31.523Z,1.30
2023-03-18T15:59:06.340Z,1.53
2023-03-18T16:01:36.141Z,1.20
2023-03-18T16:04:05.964Z,1.30
2023-03-18T16:06:36.348Z,1.10
2023-03-18T16:09:15.548Z,1.10
2023-03-18T16:11:44.605Z,1.20
2023-03-18T16:14:16.401Z,1.07
2023-03-18T16:16:44.482Z,1.10
2023-03-18T16:19:16.626Z,1.20
2023-03-18T16:21:45.971Z,1.67
2023-03-18T16:24:13.964Z,1.30
2023-03-18T16:26:42.380Z,0.90
2023-03-18T16:29:25.376Z,1.20
2023-03-18T16:31:53.467Z,1.23
2023-03-18T16:34:22.455Z,1.37
2023-03-18T16:36:53.447Z,1.00
2023-03-18T16:39:24.166Z,1.00
2023-03-18T16:41:53.650Z,1.40
2023-03-18T16:44:23.373Z,1.17
2023-03-18T16:46:54.716Z,1.20
2023-03-18T16:49:25.511Z,0.90
2023-03-18T16:51:54.848Z,1.00
2023-03-18T16:54:24.695Z,1.00
2023-03-18T16:56:55.911Z,0.80
2023-03-18T16:59:24.897Z,0.93
2023-03-18T17:01:54.109Z,1.10
2023-03-18T17:04:26.108Z,1.07
2023-03-18T17:06:56.569Z,1.27
2023-03-18T17:09:26.293Z,1.37
2023-03-18T17:11:58.331Z,0.93
2023-03-18T17:14:32.479Z,1.33
2023-03-18T17:17:03.355Z,0.87
2023-03-18T17:19:31.395Z,1.17
2023-03-18T17:22:00.747Z,1.00
2023-03-18T17:24:28.747Z,1.53
2023-03-18T17:26:56.783Z,1.13
2023-03-18T17:29:26.757Z,1.03
2023-03-18T17:31:55.307Z,1.67
2023-03-18T17:34:23.856Z,3.03
2023-03-18T17:36:53.215Z,3.00
2023-03-18T17:39:24.196Z,4.47
2023-03-18T17:41:52.308Z,14.17
2023-03-18T17:44:26.253Z,4.60
2023-03-18T17:46:55.245Z,3.60
2023-03-18T17:49:26.429Z,3.63
2023-03-18T17:51:55.431Z,2.20
2023-03-18T17:54:27.055Z,1.30
2023-03-18T17:56:56.031Z,1.30
2023-03-18T17:59:24.152Z,1.57
2023-03-18T18:01:52.601Z,1.40
2023-03-18T18:04:22.870Z,1.33
2023-03-18T18:06:52.137Z,1.20
2023-03-18T18:09:21.445Z,1.17
2023-03-18T18:11:50.984Z,1.17
2023-03-18T18:14:22.517Z,1.30
2023-03-18T18:16:50.955Z,1.20
2023-03-18T18:19:19.400Z,1.10
2023-03-18T18:21:49.117Z,1.50
2023-03-18T18:24:22.645Z,1.20
2023-03-18T18:26:52.469Z,1.40
2023-03-18T18:29:22.851Z,1.40
2023-03-18T18:31:51.469Z,1.10
2023-03-18T18:34:21.134Z,1.20
2023-03-18T18:36:49.687Z,1.27
2023-03-18T18:39:18.006Z,1.20
2023-03-18T18:41:46.522Z,1.20
2023-03-18T18:44:16.392Z,1.30
2023-03-18T18:46:44.434Z,1.40
2023-03-18T18:49:21.957Z,2.00
2023-03-18T18:51:53.970Z,1.40
2023-03-18T18:54:22.609Z,1.10
2023-03-18T18:56:50.810Z,1.60
2023-03-18T18:59:26.910Z,1.40
2023-03-18T19:01:56.248Z,1.50
2023-03-18T19:04:24.549Z,1.60
2023-03-18T19:06:53.711Z,1.73
2023-03-18T19:09:24.391Z,1.70
2023-03-18T19:11:53.281Z,1.20
2023-03-18T19:14:25.313Z,1.60
2023-03-18T19:16:55.598Z,1.87
2023-03-18T19:19:30.409Z,1.43
2023-03-18T19:21:58.837Z,1.50
2023-03-18T19:24:28.952Z,1.90
2023-03-18T19:26:59.584Z,2.27
2023-03-18T19:29:31.162Z,2.77
2023-03-18T19:32:01.256Z,2.17
2023-03-18T19:34:32.161Z,1.70
2023-03-18T19:37:02.556Z,1.43
2023-03-18T19:39:30.737Z,1.50
2023-03-18T19:41:58.742Z,1.50
2023-03-18T19:44:29.181Z,1.93
2023-03-18T19:46:59.206Z,1.97
2023-03-18T19:49:29.887Z,1.63
2023-03-18T19:51:57.937Z,1.70
2023-03-18T19:54:31.551Z,1.40
2023-03-18T19:57:01.336Z,1.40
2023-03-18T19:59:38.004Z,1.70
2023-03-18T20:02:22.206Z,2.20
2023-03-18T20:04:50.849Z,1.90
2023-03-18T20:07:20.086Z,3.20
2023-03-18T20:09:48.271Z,2.33
2023-03-18T20:12:27.423Z,2.13
2023-03-18T20:14:56.906Z,2.10
2023-03-18T20:17:35.884Z,1.70
2023-03-18T20:20:04.708Z,1.90
2023-03-18T20:22:35.625Z,2.40
2023-03-18T20:25:04.953Z,1.47
2023-03-18T20:27:33.316Z,1.63
2023-03-18T20:30:03.237Z,1.63
2023-03-18T20:32:31.746Z,1.40
2023-03-18T20:35:01.588Z,1.53
2023-03-18T20:37:34.502Z,1.37
2023-03-18T20:40:03.798Z,1.67
2023-03-18T20:42:32.750Z,2.10
2023-03-18T20:45:02.085Z,1.30
2023-03-18T20:47:30.116Z,1.60
2023-03-18T20:49:58.150Z,1.47
2023-03-18T20:52:29.329Z,1.73
2023-03-18T20:54:58.074Z,1.87
2023-03-18T20:57:27.379Z,2.00
2023-03-18T20:59:55.924Z,1.67
2023-03-18T21:02:33.346Z,1.50
2023-03-18T21:05:02.588Z,1.83
2023-03-18T21:07:31.019Z,1.23
2023-03-18T21:09:59.021Z,1.40
2023-03-18T21:12:27.020Z,1.43
2023-03-18T21:14:54.986Z,1.67
2023-03-18T21:17:24.575Z,1.50
2023-03-18T21:20:00.755Z,1.50
2023-03-18T21:22:33.797Z,1.83
2023-03-18T21:25:01.762Z,1.60
2023-03-18T21:27:29.977Z,1.63
2023-03-18T21:29:58.739Z,1.50
2023-03-18T21:32:28.473Z,1.27
2023-03-18T21:34:58.098Z,1.50
2023-03-18T21:37:27.613Z,1.70
2023-03-18T21:39:55.760Z,1.40
2023-03-18T21:42:27.207Z,1.60
2023-03-18T21:44:56.084Z,1.90
2023-03-18T21:47:26.272Z,1.50
2023-03-18T21:49:54.412Z,1.27
2023-03-18T21:52:30.102Z,1.30
2023-03-18T21:54:58.314Z,1.50
2023-03-18T21:57:26.785Z,2.07
2023-03-18T21:59:55.176Z,1.50
2023-03-18T22:02:28.527Z,1.20
2023-03-18T22:04:57.818Z,1.63
2023-03-18T22:07:28.067Z,2.47
2023-03-18T22:09:57.002Z,2.30
2023-03-18T22:12:26.983Z,1.40
2023-03-18T22:14:55.806Z,1.20
2023-03-18T22:17:27.100Z,1.30
2023-03-18T22:19:56.605Z,1.73
2023-03-18T22:22:36.603Z,1.80
2023-03-18T22:25:04.948Z,1.27
2023-03-18T22:27:33.775Z,1.40
2023-03-18T22:30:02.870Z,1.33
2023-03-18T22:32:40.550Z,1.30
2023-03-18T22:35:15.036Z,1.10
2023-03-18T22:37:45.000Z,1.10
2023-03-18T22:40:18.904Z,1.20
2023-03-18T22:42:47.956Z,1.10
2023-03-18T22:45:22.128Z,1.30
2023-03-18T22:47:50.814Z,1.43
2023-03-18T22:50:19.217Z,1.33
2023-03-18T22:52:50.149Z,1.60
2023-03-18T22:55:21.882Z,1.30
2023-03-18T22:57:50.402Z,1.43
2023-03-18T23:00:25.711Z,1.60
2023-03-18T23:02:54.530Z,1.60
2023-03-18T23:05:24.398Z,1.70
2023-03-18T23:07:54.225Z,1.03
2023-03-18T23:10:22.659Z,1.00
2023-03-18T23:12:50.613Z,1.10
2023-03-18T23:15:21.544Z,1.03
2023-03-18T23:17:50.425Z,1.07
2023-03-18T23:20:19.904Z,1.03
2023-03-18T23:22:47.910Z,0.97
2023-03-18T23:25:18.561Z,0.83
2023-03-18T23:27:46.537Z,1.00
2023-03-18T23:30:15.041Z,1.00
2023-03-18T23:32:43.155Z,1.30
2023-03-18T23:35:11.524Z,1.20
2023-03-18T23:37:39.769Z,1.10
2023-03-18T23:40:08.655Z,1.00
2023-03-18T23:42:37.984Z,0.97
2023-03-18T23:45:07.480Z,1.93
2023-03-18T23:47:35.511Z,1.40
2023-03-18T23:50:03.521Z,1.43
2023-03-18T23:52:31.477Z,1.23
2023-03-18T23:54:59.429Z,0.90
2023-03-18T23:57:28.521Z,1.30
2023-03-18T23:59:57.897Z,1.10
